Ac Electrical Motors Import to India

Connect2India provides real time data for Ac Electrical Motors import, historical Ac Electrical Motors import analysis, current demand in overseas countries and import price of Ac Electrical Motors.

Ac Electrical Motors

Ac Electrical Motors import data

Date HS Code Product Description Origin Port Destination Port Quantity Value (INR in Million) Unit Per Unit (INR)
2016-09-20 85044090 FUJI ELECTRIC PRODUCT FRN37AR1M-4A DRIVES (AC MOTOR SPEED CONTROLLER)(2 PCS) CHINA Bombay Air Cargo 2 0.0988 UNT 49387.0
2016-09-24 87089900 MC3336-4840 48V AC CONTROLLER WITH FAN (WITH HALF AFFACT PEDAL)- (PARTS OF ELECTRIC MOTOR ROAD VEHICLE FOR CAPTIVE CONSU CHINA Delhi Air Cargo 15 0.4357 PCS 29044.0
2016-09-24 87089900 MC3528 48V AC CONTROLLER (WITH HALF AFFACT PEDAL)- (PARTS OF ELECTRIC MOTOR ROAD VEHICLE FOR CAPTIVE CONSUMPTION) CHINA Delhi Air Cargo 5 0.0799 PCS 15974.0
2016-09-26 85013119 CARBONATOR PUMP MOTOR 1/3 HP 48Y 3K987 5KH32GNB811AX, 2100170960 MOT, ELEC AC 0.746/2.2KW 1PHASE B5 MOTOR ELECTRIC AC UNITED STATES Bombay Air Cargo 1 0.0325 UNT 32503.0
2016-09-26 85015220 (AC MOTOR) (ELECTRIC MOTOR - INVERTER DUTY) 1FK7042-2AF71-1RH2 GERMANY Banglore Air Cargo 1 0.0373 PCS 37319.0
2016-09-27 85015190 SIMOTICS XP NSP ELECTRIC MOTOR AC/415V/0.75KW GERMANY Bombay Air Cargo 1 0.0941 NOS 94126.0
2016-09-28 85015220 (AC MOTOR) (ELECTRIC MOTOR - INVERTER DUTY) 1FK7033-7AK71-1HB0 GERMANY Banglore Air Cargo 1 0.0413 PCS 41318.0
2016-09-28 85015220 (AC MOTOR) (ELECTRIC MOTOR - INVERTER DUTY) 1FK7033-7AK71-1LA0 GERMANY Banglore Air Cargo 1 0.0417 PCS 41687.0
2016-09-28 85015220 (AC MOTOR) (ELECTRIC MOTOR - INVERTER DUTY) 1FK7034-2AK71-1RG2 GERMANY Banglore Air Cargo 1 0.0321 PCS 32124.0
2016-09-28 85015220 (AC MOTOR) (ELECTRIC MOTOR - INVERTER DUTY) 1FK7105-5AC71-1EH3 GERMANY Banglore Air Cargo 1 0.0969 PCS 96935.0
2016-09-30 85014090 MOTOR,ELECTRIC AC FRAME 215TC 10HP 60HZ 3PH 1760RPM TCEF 230/460V 24/12A (OILWELL EQUIPMENT) UNITED STATES Bombay Air Cargo 1 0.0425 NOS 42450.0
2016-10-03 85015390 20160274-100 250HP 4P 449T AC ELECTRIC MOTOR (SUPPLY OF CCW ELECTRIC MOTOR ) UNITED STATES Nhava Sheva Sea 1 0.9727 NOS 972704.0
2016-10-03 85011020 AC SINGLE-PHASE ELECTRIC MOTOR ITEM NO:YC145 CHINA Ahmedabad 20 0.1392 PCS 6959.0
2016-10-04 85015220 (AC MOTOR) (ELECTRIC MOTOR - INVERTER DUTY) 1FK7042-5AF71-1GA2 GERMANY Banglore Air Cargo 1 0.0312 PCS 31198.0
2016-10-04 85015220 (AC MOTOR) (ELECTRIC MOTOR - INVERTER DUTY) 1FK7042-5AF71-1KG0 GERMANY Banglore Air Cargo 1 0.0323 PCS 32304.0
2016-10-04 85015220 (AC MOTOR) (ELECTRIC MOTOR - INVERTER DUTY) 1FK7063-5AF71-1EG2 GERMANY Banglore Air Cargo 1 0.0475 PCS 47453.0
2016-10-04 85015220 (AC MOTOR) (ELECTRIC MOTOR - INVERTER DUTY) 1FT7105-5AF71-1MK1 GERMANY Banglore Air Cargo 1 0.1351 PCS 135114.0
2016-10-10 85015190 (ITEM CODE.2100047141) MOTOR,ELECTRIC AC, TYPE: INDUCTION;POWER RATING:0.37 KW;VOLTAGE RATING:415 VAC;CURRENT RATING:1.0 CHINA Nhava Sheva Sea 2 0.0187 NOS 9368.0
2016-10-10 85015190 (ITEM CODE.2100048646) MOTOR,ELECTRIC AC,TYPE:INDUTION;POWER RATING:0.37 KW;VOLTAGE RATING:415 VAC;CURRENT ARTING :1.14 CHINA Nhava Sheva Sea 1 0.229 NOS 228972.0
2016-10-10 85015190 (ITEM CODE.2100160552) MOTOR,ELECTRIC AC, TYPE:INDUTION MOTOR;POWER RATING:4KW;VOLTAGE RATING:415/650 VAC;CURRENT RATING CHINA Nhava Sheva Sea 1 0.0209 NOS 20931.0
2016-10-13 85015220 (AC MOTOR) (ELECTRIC MOTOR - INVERTER DUTY) 1FK7083-5AF71-1SH0 GERMANY Banglore Air Cargo 1 0.0398 PCS 39831.0
2016-10-13 85015220 (AC MOTOR) (ELECTRIC MOTOR - INVERTER DUTY) 1PH7131-2QF00-0BA0 GERMANY Banglore Air Cargo 1 0.1403 PCS 140266.0
2016-10-13 85015220 (AC MOTOR) (ELECTRIC MOTOR - INVERTER DUTY) 600 V DC LINK 1FT6064-1AF71-3AG1 GERMANY Banglore Air Cargo 1 0.0545 PCS 54506.0
2016-10-13 85015220 AC MOTOR (ELECTRIC MOTOR- INVERTER DUTY), 600 V DC LINK, 1FT6044-1AF71-3AG1 GERMANY Banglore Air Cargo 1 0.0489 PCS 48850.0
2016-10-15 85014090 ELECTRIC ROLLING DOOR MOTOR AC-1000KG-1P CHINA Nhava Sheva Sea 10 0.0889 SET 8893.0
2016-10-15 85014090 ELECTRIC ROLLING DOOR MOTOR AC-300KG-1P CHINA Nhava Sheva Sea 35 0.1761 SET 5032.0
2016-10-15 85014090 ELECTRIC ROLLING DOOR MOTOR AC-600KG-1P CHINA Nhava Sheva Sea 35 0.1834 SET 5239.0
2016-10-15 85014090 ELECTRIC ROLLING DOOR MOTOR AC-800KG-1P CHINA Nhava Sheva Sea 20 0.1558 SET 7790.0
2016-10-15 85015220 AC FDD MOTOR (ELECTRIC MOTOR - INVERTER DUTY) 1FT6034-1AK71-3AG1 GERMANY Banglore Air Cargo 1 0.0882 PCS 88244.0
2016-10-15 85015220 AC MOTOR (ELECTRIC MOTOR - INVERTER DUTY) 1FT7044-5AF71-1CA2 GERMANY Banglore Air Cargo 1 0.0833 PCS 83307.0
2016-10-18 85015220 (AC MOTOR) (ELECTRIC MOTOR - INVERTER DUTY) 1FK7032-2AK71-1RH2 GERMANY Banglore Air Cargo 1 0.0361 PCS 36051.0
2016-10-18 85015220 (AC MOTOR) (ELECTRIC MOTOR - INVERTER DUTY) 1FK7042-2AK71-1CH2 GERMANY Banglore Air Cargo 2 0.0961 PCS 48054.0
2016-10-18 85015220 (AC MOTOR) (ELECTRIC MOTOR - INVERTER DUTY) 1FK7042-5AF71-1DG2 GERMANY Banglore Air Cargo 1 0.0396 PCS 39570.0
2016-10-18 85015220 (AC MOTOR) (ELECTRIC MOTOR - INVERTER DUTY) 1FK7060-5AF71-1DB2 GERMANY Banglore Air Cargo 1 0.0517 PCS 51704.0
2016-10-18 85015220 (AC MOTOR) (ELECTRIC MOTOR - INVERTER DUTY) 1FK7060-5AF71-1FG2 GERMANY Banglore Air Cargo 1 0.0513 PCS 51303.0
2016-10-18 85015220 (AC MOTOR) (ELECTRIC MOTOR - INVERTER DUTY) 1FK7063-5AF71-1FG3 GERMANY Banglore Air Cargo 1 0.0548 PCS 54824.0
2016-10-18 85015220 (AC MOTOR) (ELECTRIC MOTOR - INVERTER DUTY) 1FK7064-4CF71-1CH1 GERMANY Banglore Air Cargo 2 0.1199 PCS 59962.0
2016-10-18 85015220 (AC MOTOR) (ELECTRIC MOTOR - INVERTER DUTY) 1FK7084-1AF71-1CG1 GERMANY Banglore Air Cargo 1 0.0817 PCS 81721.0
2016-10-18 85015220 (AC MOTOR) (ELECTRIC MOTOR - INVERTER DUTY) 1FK7105-2AF71-1CH1 GERMANY Banglore Air Cargo 1 0.102 PCS 101989.0
2016-10-20 85015220 (AC MOTOR) (ELECTRIC MOTOR - INVERTER DUTY) 1FK7063-2AF71-1AH0 GERMANY Banglore Air Cargo 1 0.0441 PCS 44125.0
2016-10-20 85015220 (AC MOTOR) (ELECTRIC MOTOR - INVERTER DUTY) 1FK7083-5AF71-1FG2 GERMANY Banglore Air Cargo 1 0.0614 PCS 61445.0
2016-10-21 85011020 MOTOR, ELECTRIC, AC, 12.6 KW, 1800 RPM, 440-480 VOLTS, 3PH, 60HZ, IP55, FRAME TYPE: W-EF160MJ, EXD IIB T4 ATEX, B3, T/BO UNITED KINGDOM Chennai Sea 1 0.1323 NOS 132300.0
2016-10-26 84279000 CDD20K ELECTRIC STACKER MAX LIFT HEIGHT 6.5M,AC MOTOR,CURTISHANDLE,PU WHEEL,FORK SIZE 695X1150MM WITH 24V/300AH BATTERY CHINA Nhava Sheva Sea 1 0.6115 PCS 611488.0
2016-10-26 85011020 AC SINGLE-PHASE ELECTRIC MOTOR-YC145 CHINA Nhava Sheva Sea 80 0.3209 PCS 4010.0
2016-10-26 85015220 AC MOTOR (ELECTRIC MOTOR - INVERTER DUTY) 1FK7101-5AF71-1AG0 GERMANY Banglore Air Cargo 1 0.0572 PCS 57224.0
2016-10-31 85015220 (AC MOTOR) (ELECTRIC MOTOR - INVERTER DUTY) 1FK7063-5AF71-1KB0 GERMANY Banglore Air Cargo 1 0.0495 PCS 49536.0
2016-10-31 85015220 (AC MOTOR) (ELECTRIC MOTOR - INVERTER DUTY) 600 V DC LINK 1FT6108-8AB71-4AH0 GERMANY Banglore Air Cargo 1 0.2838 PCS 283798.0
2016-10-31 85015220 AC MOTOR (ELECTRIC MOTOR - INVERTER DUTY) 1FK6086-1AF71-1EG1 GERMANY Banglore Air Cargo 1 0.1417 PCS 141703.0
2016-10-31 85015220 AC MOTOR (ELECTRIC MOTOR - INVERTER DUTY) 1FK7105-2AF71-1RB0 GERMANY Banglore Air Cargo 1 0.0898 PCS 89845.0
2016-11-01 73072100 B14 FLANGE OF HS80 (SPARE PARTS OF AC ELECTRIC MOTOR) USE INRICE MILL & FLOUR MILL INDUSTRY. CHINA Kolkata Air Cargo 1 1.0E-4 PCS 116.0
2016-11-01 73072100 B14 FLANGE OF TS132 (SPARE PARTS OF AC ELECTRIC MOTOR) USE IN RICE MILL & FLOUR MILL INDUSTRY. CHINA Kolkata Air Cargo 1 4.0E-4 PCS 397.0
2016-11-01 73072100 B14 FLANGE TS71 (SPARE PARTS OF AC ELECTRIC MOTOR) USE IN RICE MILL & FLOUR MILL INDUSTRY. CHINA Kolkata Air Cargo 1 2.0E-4 PCS 165.0
2016-11-01 85030029 B3 SHIELD OF HS80 (SPARE PARTS OF AC ELECTRIC MOTOR) USE INRICE MILL & FLOUR MILL INDUSTRY. CHINA Kolkata Air Cargo 1 1.0E-4 PCS 91.0
2016-11-01 85030029 B3 SHIELD OF TS132 (SPARE PARTS OF AC ELECTRIC MOTOR) USE INRICE MILL & FLOUR MILL INDUSTRY. CHINA Kolkata Air Cargo 1 4.0E-4 PCS 364.0
2016-11-01 85030029 B3 SHIELD OF TS71 (SPARE PARTS OF AC ELECTRIC MOTOR) USE INRICE MILL & FLOUR MILL INDUSTRY. CHINA Kolkata Air Cargo 1 1.0E-4 PCS 58.0
2016-11-01 85030029 FEET OF HS80 (SPARE PARTS OF AC ELECTRIC MOTOR) USE IN RICEMILL & FLOUR MILL INDUSTRY. CHINA Kolkata Air Cargo 2 1.0E-4 PCS 29.0
2016-11-01 85030029 FEET OF TS132 (SPARE PARTS OF AC ELECTRIC MOTOR) USE IN RICE MILL & FLOUR MILL INDUSTRY. CHINA Kolkata Air Cargo 2 2.0E-4 PCS 107.0
2016-11-01 85030029 FEET OF TS71 (SPARE PARTS OF AC ELECTRIC MOTOR) USE IN RICEMILL & FLOUR MILL INDUSTRY. CHINA Kolkata Air Cargo 2 1.0E-4 PCS 25.0
2016-11-01 85011020 AC ELECTRIC MOTOR (HS631-4) 0.09KW/B5 (USE IN RICE MILL & FLOUR MILL INDUSTRY) CHINA Kolkata Air Cargo 1 0.0018 PCS 1843.0
2016-11-01 85011020 AC ELECTRIC MOTOR (HS802-4) 0.75KW/B5 (USE IN RICE MILL & FLOUR MILL INDUSTRY) CHINA Kolkata Air Cargo 1 0.0031 PCS 3058.0
2016-11-01 85011020 AC ELECTRIC MOTOR (TS132M-4) 7.5KW/B5 (USE IN RICE MILL & FLOUR MILL INDUSTRY) CHINA Kolkata Air Cargo 1 0.0099 PCS 9941.0
2016-11-01 85011020 AC ELECTRIC MOTOR (TS712-4) 0.37KW/B5 (USE IN RICE MILL & FLOUR MILL INDUSTRY) CHINA Kolkata Air Cargo 1 0.0019 PCS 1922.0
2016-11-02 85015390 HT MOTOR-5000 KW(5MW), 6P, 3.15 KV IM1001 IC86W AMI630L6LBAFTH ACS CONTROLLED MOTOR(1 NOS) --OTHER ELECTRICAL MOTOR OF FINLAND Kolkata Sea 1 16.11 NOS 1.6110005E7
2016-11-02 85011020 48V,3.5KW AC MOTOR P/N:ABDI4002 (FOR MFG OF ELECTRICALLY OPERATED VEHICLES) KOREA,REPUBLIC OF Bangalore ICD 49 0.9744 UNT 19886.0
2016-11-02 85015220 AC FDD MOTOR (ELECTRIC MOTOR - INVERTER DUTY) 1FT7105-5AC71-1EG3 GERMANY Banglore Air Cargo 1 0.0949 PCS 94913.0
2016-11-02 85015220 AC FDD MOTOR (ELECTRIC MOTOR - INVERTER DUTY) 600 V DC LINK, 1FT6064-6AK71-3DG1 GERMANY Banglore Air Cargo 1 0.1226 PCS 122610.0
2016-11-02 85015220 AC FDD MOTOR (ELECTRIC MOTOR - INVERTER DUTY) 600 V DC LINK, 1FT6103-1AC71-4AG1 GERMANY Banglore Air Cargo 1 0.1119 PCS 111891.0
2016-11-02 85015220 AC MOTOR (ELECTRIC MOTOR - INVERTER DUTY) 1PH7103-2NG02-0CJ6 GERMANY Banglore Air Cargo 1 0.1374 PCS 137421.0
2016-11-02 85015290 1FT6086-8AF71-1PG0 AC MOTOR ( ELECTRIC MOTOR - INVERTER DUTY) GERMANY Bombay Air Cargo 1 0.1395 UNT 139519.0
2016-11-03 87089900 MC3336-4840-K 48V AC CONTROLLER WITH FAN (WITH HALF AFFACT PEDAL)- (PARTS OF ELECTRIC MOTOR ROAD VEHICLE FOR CAPTIVE CON CHINA Delhi Air Cargo 20 0.5756 PCS 28782.0

Ac Electrical Motors Trade Data - Indian Ports

S. No Product Product Code Quantity Value (INR in Million) Unit Origin Port Destination Port
AC ELECTRIC MOTOR (FM-110209F) SFM 16HS, 100-130 WATT, 230V/50HZ (WITH BALL BEARING) (FOR CAPTIVE USE IN MFR OF ELECTRIC 85014090 13072 6.1386 PCS VIETNAM, DEMOCRATIC REP. OF Tughlakabad
AC ELECTRIC MOTOR (WF-13209) V2PF, 80-100 WATT, 230V/50HZ (FOR CAPTIVE USE IN MFR OF ELECTRIC FAN)(MFRG: WELL TIME INDUS 85014090 1400 1.0405 PCS VIETNAM, DEMOCRATIC REP. OF Tughlakabad
AC ELECTRIC MOTOR (WF-13309) V2WF, 80-100 WATT, 230V/50HZ (FOR CAPTIVE USE IN MFR OF ELECTRIC FAN)(MFRG: WELL TIME INDUS 85014090 1400 1.0424 PCS VIETNAM, DEMOCRATIC REP. OF Tughlakabad
AC ELECTRICAL MOTOR WFM-16 NEW ( CELOL00009 ) (MFRG : MIDEA INTERNATIONAL TRADING CO LTD ) 85014090 16200 6.6144 NOS CHINA Tughlakabad
AC ELECTRICAL MOTOR WFM-16 NEW (CELOL00009 ) ( MFRG : MIDEA INTERNATIONAL TRADING CO LTD ) 85014090 16200 6.6144 NOS CHINA Tughlakabad
(AC MOTOR) (ELECTRIC MOTOR - INVERTER DUTY) 1FK7101-5AF71-1AH0 85015220 1 0.0602 PCS GERMANY Banglore Air Cargo
(AC MOTOR) (ELECTRIC MOTOR - INVERTER DUTY) 1FK7101-5AF71-1EH0 85015220 1 0.067 PCS GERMANY Banglore Air Cargo
(AC MOTOR) (ELECTRIC MOTOR - INVERTER DUTY) 1FK7042-5AF71-1FG3-Z 85015220 1 0.047 PCS GERMANY Banglore Air Cargo
(AC MOTOR) (ELECTRIC MOTOR - INVERTER DUTY) 1FK7060-2AF71-1RG2 85015220 1 0.0356 PCS GERMANY Banglore Air Cargo
(AC MOTOR) (ELECTRIC MOTOR - INVERTER DUTY) 1FK7063-2AC71-1RH2 85015220 1 0.0447 PCS GERMANY Banglore Air Cargo
(AC MOTOR) (ELECTRIC MOTOR - INVERTER DUTY) 1FK7063-5AF71-1AB0 85015220 1 0.0446 PCS GERMANY Banglore Air Cargo
MOTOR,ELECTRIC AC 145TC FRAME 2HP 3450RPM 480V 3PH 3450RPM (OILWELL EQUIPMENT) 85015290 1 0.0414 NOS UNITED STATES Bombay Air Cargo
ELECTRIC VACUUM MOTOR 5.7" T2 / 120V AC MODEL NO.122471-07 85011020 15 0.0741 NOS CHINA Ahmedabad
09F298X858G1 20HP, 1765RPM, 3PH, 60HZ, 256T, 0948M, TEBC, F1MOTOR AC 3PH > 750W <=14.92 KW (USING THE ELECTRIC MOTOR) 85015210 1 0.0938 UNT UNITED STATES Bombay Air Cargo
09L973Y948G1XN 15HP, 3600, 254T, TEFC MOTOR AC 3PH > 750W <=14.92KW (USING THE ELECTRIC MOTOR) 85015210 1 0.1613 UNT UNITED STATES Bombay Air Cargo
36K689X676G1 5HP, 3500RPM, 3PH, 60HZ, 184TDZ, 3634M, TEFC, FMOTOR AC 3PH> 750W <=14.92KW (USING THE ELECTRIC MOTOR) 85015210 1 0.0227 UNT UNITED STATES Bombay Air Cargo
AC ELECTRIC MOTOR (FM-104209) PFM 7, 20-50 WATT, 230V/50HZ (FOR CAPTIVE USE IN MFR OF ELECTRIC FAN)(MFRG: WELL TIME INDU 85014090 2000 0.487 PCS VIETNAM, DEMOCRATIC REP. OF Tughlakabad
AC ELECTRIC MOTOR (FM-104809A) SFM 12HS, 90-115 WATT, 230V/50HZ (FOR CAPTIVE USE IN MFR OF ELECTRIC FAN)(MFRG: WELL TIME 85014090 3000 1.0537 PCS VIETNAM, DEMOCRATIC REP. OF Tughlakabad
AC ELECTRIC MOTOR (FM-110209F) SFM 16HS, 100-130 WATT, 230V/50HZ (WITH BALL BEARING) (FOR CAPTIVE USE IN MFR OF ELECTRIC 85014090 2000 0.9398 PCS VIETNAM, DEMOCRATIC REP. OF Tughlakabad
AC ELECTRIC MOTOR (FM-80109) SFM 18HS, 100-150 WATT, 230V/50HZ (FOR CAPTIVE USE IN MFR OF ELECTRIC FAN)(MFRG: WELL TIME 85014090 1700 1.0752 PCS VIETNAM, DEMOCRATIC REP. OF Tughlakabad
AC ELECTRIC MOTOR (FM-80109A1) WFM 18HS, 100-150 WATT, 230V/50HZ (FOR CAPTIVE USE IN MFR OF ELECTRIC FAN)(MFRG: WELL TIM 85014090 2200 1.4231 PCS VIETNAM, DEMOCRATIC REP. OF Tughlakabad
AC ELECTRIC MOTOR (WF-13209) V2PF, 80-100 WATT, 230V/50HZ (FOR CAPTIVE USE IN MFR OF ELECTRIC FAN)(MFRG: WELL TIME INDUS 85014090 400 0.2939 PCS VIETNAM, DEMOCRATIC REP. OF Tughlakabad
AC ELECTRIC MOTOR (WF-13309) V2WF, 80-100 WATT, 230V/50HZ (FOR CAPTIVE USE IN MFR OF ELECTRIC FAN)(MFRG: WELL TIME INDUS 85014090 400 0.2944 PCS VIETNAM, DEMOCRATIC REP. OF Tughlakabad
PARTS FOR COATING LINE ELECTRICAL ITEM AC-MOTOR 1.1 KW 1000 1/MIN 85015290 1 0.0311 NOS GERMANY Bombay Air Cargo
BEARING,BALL AC ELECTRIC MOTOR (OILWELL EQUIPMENT) 84821090 5 0.0032 NOS UNITED STATES Bombay Air Cargo

Looking to import Ac Electrical Motors?

With end to end global trade solutions from Connect2India, we enable Indian SMEs to start and grow their business globally

There is a total of 79 countries India imports Ac Electrical Motors from. The dollar value of Ac Electrical Motors import in 2020-2021 (Apr-Nov) stood at 250.32 USD Million and 318.47 USD Million in 2018, which shows a growth of 19.58% from the previous year’s import value which was 266.32 USD Million in 2017. Year on year the import of Ac Electrical Motors in India grew by 62.42% during 2014 to 2018.

Preferred nations for indian Ac Electrical Motors buyers are China (136.46 USD Million), Indonesia (19.17 USD Million), Japan (13.02 USD Million), Germany (12.04 USD Million), China, Hong Kong SAR (8.74 USD Million) . These 5 countries in total sold 189.43 USD Million value of Ac Electrical Motors to India which rounds up to 75.68% of the Ac Electrical Motors import into India.

The data provided on the page shows the top 10 countries from where India imports Ac Electrical Motors from. In the year 2020-2021 (Apr-Nov), India imported Ac Electrical Motors worth 250.32 USD Million as compared to 318.47 USD Million in the year 2018.

Country Value (USD Million) Share (%)
China 136.46 54.51
Indonesia 19.17 7.66
Japan 13.02 5.2
Germany 12.04 4.81
China, Hong Kong SAR 8.74 3.49
Malaysia 8.48 3.39
Ukraine 6.71 2.68
USA 6.26 2.5
Singapore 4.79 1.91
Brazil 4.61 1.84

Among the top importing countries, India imported the highest dollar worth of Ac Electrical Motors from China with shipments in 2020-2021 (Apr-Nov) valued at 136.46 USD Million which is greater than the previous year Ac Electrical Motors shipments from China into India. In second place was Indonesia, from which India imported around 19.17 USD Million worth of Ac Electrical Motors. The top 10 countries shared 88% of the Ac Electrical Motors import to India.

From the Ac Electrical Motors importing nations of India, recorded the fastest growth in their Ac Electrical Motors export to India with % rise in the Ac Electrical Motors import to India.

Below is the list of all countries for Ac Electrical Motors import to India.

Country Value (USD Million) Share (%)
United Kingdom 3.44 1.37
Italy 3.17 1.27
Thailand 2.38 0.95
Belgium 2.23 0.89
Switzerland 1.89 0.76
Rep. of Korea 1.81 0.72
United Arab Emirates 1.79 0.72
Netherlands 1.77 0.71
TAIWAN 1.59 0.64
Viet Nam 1.55 0.62
Spain 1.23 0.49
Sweden 1.08 0.43
Poland 0.75 0.3
Russian Federation 0.72 0.29
Philippines 0.64 0.26
Denmark 0.59 0.24
Hungary 0.48 0.19
France 0.44 0.18
Jordan 0.32 0.13
Croatia 0.31 0.12

Combinedly all the above countries exported 248.46 million dollar of Ac Electrical Motors to India.

Yearwise analysis of Ac Electrical Motors import to India

Below is the detailed list of Ac Electrical Motors import to India with quantity, volume, price, origin port and the destination port.

Increase your Ac Electrical Motors imports with steady access to working capital with our import financing solutions at Connect2India.

Looking to import Ac Electrical Motors from genuine and best quality Indian suppliers?

Ac Electrical Motors import analysis - Monthwise

The data shows the top 20 countries from where India imported Ac Electrical Motors in November 2020.

  • India Imported Ac Electrical Motors worth 19.12 USD million from China in November 2020.
  • The total quantity of Ac Electrical Motors imported from China was 9547889.
  • India imported Ac Electrical Motors worth of 3.5 USD million in November 2020 alone from Germany.
  • India has imported Ac Electrical Motors value worth 2.98 USD Million from Japan in November 2020.
  • India imported a volume of 287420 metric tons of Ac Electrical Motors from Indonesia in tNovember 2020 and was 4th in the list of countries India imported Ac Electrical Motors from.
  • A total of 11282539 quantity of Ac Electrical Motors was imported from the mentioned countries.
S.no. Country Qty Value(USD Million) Month year
China 9547889 19.12 November 2020
Germany 85590 3.5 November 2020
Japan 1345010 2.98 November 2020
Indonesia 287420 2.38 November 2020
United Kingdom 16630 1.88 November 2020
China, Hong Kong SAR 5213130 1.57 November 2020
Malaysia 115480 1.47 November 2020
Singapore 591490 0.99 November 2020
USA 12610 0.46 November 2020
Brazil 2170 0.38 November 2020
Thailand 189740 0.38 November 2020
TAIWAN 2056460 0.31 November 2020
Rep. of Korea 224670 0.3 November 2020
Viet Nam 53940 0.25 November 2020
Belgium 11430 0.21 November 2020
United Arab Emirates 62110 0.21 November 2020
Philippines 227050 0.16 November 2020
Italy 403980 0.12 November 2020
Nepal 0 0.1 November 2020
France 140350 0.08 November 2020

Graphical representation for Ac Electrical Motors import

Ac Electrical Motors - Recent import data

Ac Electrical Motors in India is imported from more than 79 countries.

In FY 2020-2021 (Apr-Nov), Around 136.46 USD Million of Ac Electrical Motors is imported to India from China. It is around 54.51% of the total import of Ac Electrical Motors.

How connect2india can help you import Ac Electrical Motors?

Connect2India can help you find Ac Electrical Motors suppliers / exporters in more than 100 countries, arrange import orders for Ac Electrical Motors, find the most effective market to import Ac Electrical Motors, help you out with procedures and formalities required to import Ac Electrical Motors in India and also assist you in Ac Electrical Motors shipment and logistics. Our trade experts are always available for any help regarding the import of Ac Electrical Motors and its products. If you want more information, please get in touch with our trade experts here

People Also Ask

From which countries does India import Ac Electrical Motors from?

India imports Ac Electrical Motors from China (136.46 USD Million), Indonesia (19.17 USD Million), Japan (13.02 USD Million), Germany (12.04 USD Million), China, Hong Kong SAR (8.74 USD Million) .

Whom can I contact for more information on Ac Electrical Motors import to India?

You can submit your requirement on Connect2India and our representative will get in touch with you with more information about Ac Electrical Motors. Alternatively, you can call us @ +91-7876759999 or email us to info@connect2India.com

Which is the most popular Indian port for Ac Electrical Motors import?

Banglore Air Cargo is the most popular port for Ac Electrical Motors import to India

What are the top three import shipments of Ac Electrical Motors traded to India?

Following are the top three import shipments of Ac Electrical Motors traded to India :

  • FUJI ELECTRIC PRODUCT FRN37AR1M-4A DRIVES (AC MOTOR SPEED CONTROLLER)(2 PCS)
  • MC3336-4840 48V AC CONTROLLER WITH FAN (WITH HALF AFFACT PEDAL)- (PARTS OF ELECTRIC MOTOR ROAD VEHICLE FOR CAPTIVE CONSU
  • MC3528 48V AC CONTROLLER (WITH HALF AFFACT PEDAL)- (PARTS OF ELECTRIC MOTOR ROAD VEHICLE FOR CAPTIVE CONSUMPTION)